Time;durP1;ratioP1;P1;durP2;ratioP2;P2;SDS_P1;SDS_P2;PMS_P1;PMS_P2;Temp;Humidity;BMP_temperature;BMP_pressure;BME280_temperature;BME280_humidity;BME280_pressure;Samples;Min_cycle;Max_cycle;Signal;HPM_P1;HPM_P2
2021/08/11 00:00:05;;;;;;;1.88;1.17;;;;;;;;;;3586434;40;20059;-66
2021/08/11 00:02:31;;;;;;;2.47;1.23;;;;;;;;;;3586299;40;20044;-66
2021/08/11 00:04:56;;;;;;;2.03;1.27;;;;;;;;;;3587212;40;20450;-66
2021/08/11 00:07:21;;;;;;;1.92;1.30;;;;;;;;;;3586480;40;20028;-66
2021/08/11 00:09:47;;;;;;;1.80;1.38;;;;;;;;;;3585890;40;20044;-66
2021/08/11 00:12:12;;;;;;;2.80;1.75;;;;;;;;;;3587219;40;20276;-66
2021/08/11 00:14:37;;;;;;;2.38;1.48;;;;;;;;;;3586727;40;20052;-66
2021/08/11 00:17:03;;;;;;;1.15;0.93;;;;;;;;;;3586396;40;20121;-67
2021/08/11 00:19:28;;;;;;;2.22;1.50;;;;;;;;;;3586366;40;20037;-67
2021/08/11 00:21:54;;;;;;;1.92;1.38;;;;;;;;;;3586497;40;20354;-66
2021/08/11 00:24:19;;;;;;;1.63;0.98;;;;;;;;;;3586854;40;20068;-67
2021/08/11 00:26:44;;;;;;;1.63;1.02;;;;;;;;;;3586632;40;20450;-66
2021/08/11 00:29:10;;;;;;;1.55;1.13;;;;;;;;;;3586830;40;20029;-67
2021/08/11 00:31:35;;;;;;;2.67;1.45;;;;;;;;;;3584860;40;20076;-68
2021/08/11 00:34:00;;;;;;;1.17;0.82;;;;;;;;;;3586703;40;20040;-66
2021/08/11 00:36:26;;;;;;;2.05;1.30;;;;;;;;;;3585728;40;20049;-66
2021/08/11 00:38:51;;;;;;;1.23;0.85;;;;;;;;;;3584143;40;20033;-67
2021/08/11 00:41:17;;;;;;;1.35;0.98;;;;;;;;;;3585809;40;20036;-66
2021/08/11 00:43:42;;;;;;;1.58;1.13;;;;;;;;;;3586489;40;20052;-66
2021/08/11 00:46:08;;;;;;;1.90;1.30;;;;;;;;;;3586494;40;20052;-66
2021/08/11 00:48:36;;;;;;;1.42;1.02;;;;;;;;;;3586757;40;20048;-66
2021/08/11 00:51:02;;;;;;;1.45;1.13;;;;;;;;;;3586358;40;20087;-66
2021/08/11 00:53:30;;;;;;;1.50;1.08;;;;;;;;;;3586121;40;20040;-66
2021/08/11 00:55:57;;;;;;;2.00;1.35;;;;;;;;;;3586774;40;20056;-66
2021/08/11 00:58:23;;;;;;;1.50;1.02;;;;;;;;;;3586043;40;20625;-67
2021/08/11 01:00:50;;;;;;;1.33;0.95;;;;;;;;;;3586503;40;20041;-66
2021/08/11 01:03:21;;;;;;;2.63;1.48;;;;;;;;;;3586767;40;20039;-66
2021/08/11 01:05:48;;;;;;;1.98;1.15;;;;;;;;;;3586706;40;20125;-66
2021/08/11 01:08:14;;;;;;;2.08;1.40;;;;;;;;;;3584645;40;20043;-66
2021/08/11 01:10:40;;;;;;;2.00;1.50;;;;;;;;;;3585870;40;20090;-66
2021/08/11 01:13:07;;;;;;;1.25;0.85;;;;;;;;;;3585926;40;20036;-66
2021/08/11 01:15:32;;;;;;;2.28;1.30;;;;;;;;;;3586432;40;20069;-66
2021/08/11 01:17:57;;;;;;;1.25;0.90;;;;;;;;;;3585781;40;20037;-66
2021/08/11 01:20:23;;;;;;;3.35;1.35;;;;;;;;;;3586768;40;20523;-67
2021/08/11 01:23:03;;;;;;;4.72;1.73;;;;;;;;;;3586850;40;20375;-67
2021/08/11 01:25:35;;;;;;;4.05;2.13;;;;;;;;;;3585757;40;20029;-66
2021/08/11 01:28:20;;;;;;;1.73;1.27;;;;;;;;;;3584941;40;20037;-66
2021/08/11 01:31:07;;;;;;;1.55;0.95;;;;;;;;;;3587019;40;20456;-66
2021/08/11 01:33:46;;;;;;;2.20;1.60;;;;;;;;;;3586060;40;20045;-67
2021/08/11 01:36:16;;;;;;;1.73;1.20;;;;;;;;;;3586329;40;20088;-66
2021/08/11 01:38:49;;;;;;;1.45;1.05;;;;;;;;;;3585361;40;20216;-66
2021/08/11 01:41:17;;;;;;;3.08;1.48;;;;;;;;;;3586781;40;20061;-67
2021/08/11 01:43:45;;;;;;;1.88;1.17;;;;;;;;;;3585586;40;20051;-66
2021/08/11 01:46:12;;;;;;;2.95;1.95;;;;;;;;;;3585906;40;20053;-66
2021/08/11 01:48:39;;;;;;;2.42;1.52;;;;;;;;;;3585397;40;20330;-67
2021/08/11 01:51:06;;;;;;;2.10;1.40;;;;;;;;;;3584974;40;20044;-66
2021/08/11 01:53:32;;;;;;;1.50;1.02;;;;;;;;;;3585727;40;20088;-66
2021/08/11 01:55:59;;;;;;;1.42;1.05;;;;;;;;;;3584313;40;20040;-67
2021/08/11 01:58:27;;;;;;;2.17;1.30;;;;;;;;;;3586071;40;20044;-66
2021/08/11 02:00:56;;;;;;;0.90;0.70;;;;;;;;;;3585468;40;20043;-66
2021/08/11 02:03:23;;;;;;;1.85;1.15;;;;;;;;;;3585975;40;20161;-66
2021/08/11 02:05:53;;;;;;;2.20;1.30;;;;;;;;;;3585094;40;20045;-67
2021/08/11 02:08:21;;;;;;;1.80;1.23;;;;;;;;;;3583476;40;20060;-66
2021/08/11 02:10:48;;;;;;;2.00;1.25;;;;;;;;;;3584709;40;20377;-65
2021/08/11 02:13:15;;;;;;;1.10;0.80;;;;;;;;;;3586072;40;20085;-68
2021/08/11 02:15:41;;;;;;;1.60;1.02;;;;;;;;;;3585914;40;20044;-68
2021/08/11 02:18:06;;;;;;;1.50;1.02;;;;;;;;;;3585461;40;20360;-68
2021/08/11 02:20:31;;;;;;;1.17;0.82;;;;;;;;;;3586041;40;20264;-68
2021/08/11 02:22:57;;;;;;;0.93;0.73;;;;;;;;;;3584962;40;20080;-69
2021/08/11 02:25:22;;;;;;;1.80;1.08;;;;;;;;;;3585567;40;20176;-69
2021/08/11 02:27:51;;;;;;;1.63;0.93;;;;;;;;;;3585518;40;20044;-68
2021/08/11 02:30:22;;;;;;;1.52;0.95;;;;;;;;;;3585749;40;20033;-69
2021/08/11 02:33:13;;;;;;;1.40;0.85;;;;;;;;;;3586327;40;20039;-68
2021/08/11 02:35:48;;;;;;;1.88;0.90;;;;;;;;;;3581918;40;20053;-67
2021/08/11 02:38:19;;;;;;;1.02;0.80;;;;;;;;;;3584760;40;20047;-68
2021/08/11 02:41:18;;;;;;;3.08;1.55;;;;;;;;;;3585434;40;20036;-69
2021/08/11 02:43:49;;;;;;;0.82;0.70;;;;;;;;;;3580255;40;20044;-68
2021/08/11 02:46:21;;;;;;;1.15;0.73;;;;;;;;;;3585637;40;20139;-68
2021/08/11 02:48:53;;;;;;;2.30;1.33;;;;;;;;;;3585737;40;20056;-68
2021/08/11 02:51:20;;;;;;;1.17;0.80;;;;;;;;;;3583895;40;20105;-68
2021/08/11 02:53:45;;;;;;;4.53;1.17;;;;;;;;;;3581128;40;20052;-67
2021/08/11 02:56:14;;;;;;;1.23;0.90;;;;;;;;;;3584553;40;20420;-68
2021/08/11 02:58:41;;;;;;;1.50;1.10;;;;;;;;;;3583152;40;20032;-68
2021/08/11 03:01:07;;;;;;;1.20;0.95;;;;;;;;;;3585809;40;20141;-68
2021/08/11 03:03:33;;;;;;;1.90;0.88;;;;;;;;;;3586514;40;20044;-67
2021/08/11 03:05:58;;;;;;;1.45;0.93;;;;;;;;;;3586590;40;20287;-67
2021/08/11 03:08:27;;;;;;;1.20;0.90;;;;;;;;;;3585606;40;20485;-67
2021/08/11 03:10:52;;;;;;;2.22;1.23;;;;;;;;;;3585800;40;20037;-68
2021/08/11 03:13:18;;;;;;;1.95;1.17;;;;;;;;;;3587052;40;20051;-67
2021/08/11 03:15:44;;;;;;;2.20;1.48;;;;;;;;;;3587222;40;20125;-67
2021/08/11 03:18:10;;;;;;;1.55;1.00;;;;;;;;;;3587023;40;20025;-69
2021/08/11 03:20:37;;;;;;;1.42;0.90;;;;;;;;;;3586742;40;20437;-69
2021/08/11 03:23:03;;;;;;;1.45;1.02;;;;;;;;;;3587150;40;20040;-69
2021/08/11 03:25:28;;;;;;;2.38;1.52;;;;;;;;;;3585594;40;20051;-68
2021/08/11 03:27:53;;;;;;;1.65;1.10;;;;;;;;;;3585353;40;20339;-68
2021/08/11 03:30:19;;;;;;;3.17;1.48;;;;;;;;;;3585624;40;20032;-68
2021/08/11 03:32:44;;;;;;;1.80;1.17;;;;;;;;;;3585047;40;20035;-68
2021/08/11 03:35:10;;;;;;;1.40;0.95;;;;;;;;;;3586196;40;20465;-69
2021/08/11 03:37:35;;;;;;;1.80;1.08;;;;;;;;;;3586771;40;20028;-69
2021/08/11 03:40:01;;;;;;;2.15;1.45;;;;;;;;;;3586959;40;20028;-69
2021/08/11 03:42:26;;;;;;;1.30;0.90;;;;;;;;;;3586212;40;20045;-68
2021/08/11 03:44:52;;;;;;;1.25;0.80;;;;;;;;;;3586271;40;20062;-69
2021/08/11 03:47:17;;;;;;;2.42;1.08;;;;;;;;;;3586940;40;20028;-68
2021/08/11 03:49:46;;;;;;;1.83;1.20;;;;;;;;;;3585267;40;20036;-68
2021/08/11 03:52:11;;;;;;;1.95;1.20;;;;;;;;;;3584543;40;20025;-67
2021/08/11 03:54:37;;;;;;;1.27;0.93;;;;;;;;;;3585690;40;20272;-68
2021/08/11 03:57:02;;;;;;;2.47;1.15;;;;;;;;;;3584887;40;20651;-67
2021/08/11 03:59:28;;;;;;;2.95;1.58;;;;;;;;;;3584390;40;20039;-66
2021/08/11 04:01:54;;;;;;;1.30;0.77;;;;;;;;;;3586678;40;20035;-66
2021/08/11 04:04:20;;;;;;;3.33;1.52;;;;;;;;;;3584906;40;20029;-68
2021/08/11 04:06:45;;;;;;;1.52;0.90;;;;;;;;;;3584730;40;20306;-66
2021/08/11 04:09:11;;;;;;;2.13;1.40;;;;;;;;;;3586955;40;20437;-67
2021/08/11 04:11:36;;;;;;;1.70;1.10;;;;;;;;;;3586559;40;20051;-66
2021/08/11 04:14:02;;;;;;;1.65;1.15;;;;;;;;;;3587208;40;20029;-68
2021/08/11 04:16:27;;;;;;;1.45;1.00;;;;;;;;;;3586763;40;20044;-67
2021/08/11 04:18:52;;;;;;;1.15;0.85;;;;;;;;;;3585960;40;20048;-67
2021/08/11 04:21:18;;;;;;;1.15;0.98;;;;;;;;;;3585943;40;20115;-66
2021/08/11 04:23:43;;;;;;;1.65;1.05;;;;;;;;;;3582659;40;20649;-66
2021/08/11 04:26:09;;;;;;;1.17;0.90;;;;;;;;;;3587153;40;20043;-66
2021/08/11 04:28:34;;;;;;;1.77;0.98;;;;;;;;;;3586507;40;20032;-66
2021/08/11 04:30:59;;;;;;;2.22;1.38;;;;;;;;;;3586259;40;20457;-66
2021/08/11 04:33:25;;;;;;;3.08;2.25;;;;;;;;;;3586410;40;20037;-67
2021/08/11 04:35:50;;;;;;;2.40;1.45;;;;;;;;;;3587007;40;20136;-67
2021/08/11 04:38:17;;;;;;;1.58;1.05;;;;;;;;;;3585525;40;20072;-66
2021/08/11 04:40:43;;;;;;;2.40;1.52;;;;;;;;;;3585616;40;20044;-66
2021/08/11 04:43:08;;;;;;;2.65;1.58;;;;;;;;;;3586854;40;20043;-66
2021/08/11 04:45:38;;;;;;;1.42;0.90;;;;;;;;;;3586901;40;20052;-66
2021/08/11 04:48:04;;;;;;;0.93;0.80;;;;;;;;;;3587115;40;20033;-67
2021/08/11 04:50:29;;;;;;;1.35;0.90;;;;;;;;;;3586658;40;20052;-66
2021/08/11 04:52:54;;;;;;;1.52;0.90;;;;;;;;;;3592800;40;20284;-66
2021/08/11 04:55:20;;;;;;;1.40;1.10;;;;;;;;;;3587324;40;20126;-68
2021/08/11 04:57:45;;;;;;;1.77;1.02;;;;;;;;;;3585944;40;20033;-66
2021/08/11 05:00:11;;;;;;;1.88;1.23;;;;;;;;;;3586811;40;20109;-66
2021/08/11 05:02:37;;;;;;;1.33;0.90;;;;;;;;;;3586458;40;20045;-67
2021/08/11 05:05:04;;;;;;;2.22;1.63;;;;;;;;;;3586218;40;20037;-67
2021/08/11 05:07:30;;;;;;;2.47;1.40;;;;;;;;;;3586777;40;20040;-67
2021/08/11 05:09:56;;;;;;;1.63;1.23;;;;;;;;;;3586815;40;20028;-66
2021/08/11 05:12:21;;;;;;;5.68;1.27;;;;;;;;;;3586564;40;20025;-66
2021/08/11 05:14:46;;;;;;;2.03;1.30;;;;;;;;;;3585559;40;20044;-66
2021/08/11 05:17:12;;;;;;;1.77;1.10;;;;;;;;;;3587016;40;20122;-67
2021/08/11 05:19:37;;;;;;;3.83;2.13;;;;;;;;;;3586900;40;20052;-67
2021/08/11 05:22:03;;;;;;;3.40;1.63;;;;;;;;;;3586441;40;20037;-67
2021/08/11 05:24:28;;;;;;;1.70;1.13;;;;;;;;;;3586277;40;20048;-67
2021/08/11 05:26:54;;;;;;;1.75;1.15;;;;;;;;;;3586633;40;20052;-67
2021/08/11 05:29:20;;;;;;;1.98;1.38;;;;;;;;;;3586685;40;20040;-67
2021/08/11 05:31:46;;;;;;;3.50;1.50;;;;;;;;;;3586184;40;20059;-66
2021/08/11 05:34:12;;;;;;;2.65;1.48;;;;;;;;;;3584968;40;20025;-67
2021/08/11 05:36:37;;;;;;;1.10;0.82;;;;;;;;;;3580702;40;20788;-67
2021/08/11 05:39:04;;;;;;;2.35;1.35;;;;;;;;;;3586346;40;20036;-67
2021/08/11 05:41:30;;;;;;;1.35;0.90;;;;;;;;;;3585195;40;20031;-67
2021/08/11 05:43:55;;;;;;;1.85;1.30;;;;;;;;;;3586715;40;20361;-67
2021/08/11 05:46:20;;;;;;;1.95;1.10;;;;;;;;;;3586704;40;20028;-68
2021/08/11 05:48:46;;;;;;;2.15;1.17;;;;;;;;;;3586046;40;20033;-67
2021/08/11 05:51:13;;;;;;;2.22;1.38;;;;;;;;;;3586668;40;20033;-69
2021/08/11 05:53:39;;;;;;;1.25;0.88;;;;;;;;;;3585984;40;20061;-68
2021/08/11 05:56:05;;;;;;;1.55;1.10;;;;;;;;;;3585928;40;20052;-68
2021/08/11 05:58:30;;;;;;;1.95;1.23;;;;;;;;;;3585813;40;20029;-68
2021/08/11 06:00:56;;;;;;;0.95;0.73;;;;;;;;;;3586661;40;20130;-68
2021/08/11 06:03:21;;;;;;;2.22;1.60;;;;;;;;;;3586402;40;20041;-68
2021/08/11 06:05:46;;;;;;;1.83;1.33;;;;;;;;;;3585803;40;20032;-69
2021/08/11 06:08:12;;;;;;;1.67;1.17;;;;;;;;;;3585771;40;20067;-68
2021/08/11 06:10:39;;;;;;;2.65;1.40;;;;;;;;;;3585956;40;20051;-68
2021/08/11 06:13:04;;;;;;;2.05;1.52;;;;;;;;;;3586497;40;20043;-68
2021/08/11 06:15:29;;;;;;;1.73;1.23;;;;;;;;;;3585923;40;20298;-68
2021/08/11 06:17:55;;;;;;;1.73;1.17;;;;;;;;;;3586070;40;20054;-68
2021/08/11 06:20:22;;;;;;;2.25;1.20;;;;;;;;;;3585260;40;20065;-68
2021/08/11 06:22:47;;;;;;;1.60;1.13;;;;;;;;;;3593324;40;20029;-68
2021/08/11 06:25:13;;;;;;;1.73;0.93;;;;;;;;;;3585722;40;20300;-68
2021/08/11 06:27:39;;;;;;;1.52;1.00;;;;;;;;;;3586198;40;20068;-68
2021/08/11 06:30:06;;;;;;;2.00;1.40;;;;;;;;;;3585725;40;20039;-68
2021/08/11 06:32:32;;;;;;;2.55;1.48;;;;;;;;;;3586083;40;20122;-68
2021/08/11 06:34:57;;;;;;;4.70;1.63;;;;;;;;;;3585369;40;20041;-68
2021/08/11 06:37:23;;;;;;;1.92;1.20;;;;;;;;;;3586609;40;20157;-69
2021/08/11 06:39:48;;;;;;;1.38;1.02;;;;;;;;;;3586288;40;20216;-69
2021/08/11 06:42:14;;;;;;;1.88;1.23;;;;;;;;;;3587679;40;20073;-69
2021/08/11 06:44:39;;;;;;;2.00;1.50;;;;;;;;;;3587548;40;20040;-68
2021/08/11 06:47:05;;;;;;;2.10;1.48;;;;;;;;;;3587975;40;20035;-68
2021/08/11 06:49:30;;;;;;;1.48;0.95;;;;;;;;;;3587389;40;20041;-69
2021/08/11 06:51:56;;;;;;;1.55;1.13;;;;;;;;;;3586986;40;20036;-68
2021/08/11 06:54:21;;;;;;;2.30;1.42;;;;;;;;;;3586864;40;20057;-68
2021/08/11 06:56:46;;;;;;;2.00;1.27;;;;;;;;;;3587735;40;20368;-68
2021/08/11 06:59:12;;;;;;;1.35;0.95;;;;;;;;;;3587456;40;20051;-68
2021/08/11 07:01:37;;;;;;;1.00;0.70;;;;;;;;;;3585725;40;20872;-68
2021/08/11 07:04:03;;;;;;;1.10;0.70;;;;;;;;;;3586202;40;20036;-68
2021/08/11 07:06:28;;;;;;;1.83;1.15;;;;;;;;;;3586340;40;20044;-67
2021/08/11 07:08:54;;;;;;;2.28;1.25;;;;;;;;;;3586853;40;20073;-68
2021/08/11 07:11:19;;;;;;;3.33;1.05;;;;;;;;;;3587730;40;20029;-68
2021/08/11 07:13:45;;;;;;;1.45;1.02;;;;;;;;;;3587830;40;20043;-68
2021/08/11 07:16:10;;;;;;;1.20;0.88;;;;;;;;;;3587215;40;20032;-67
2021/08/11 07:18:36;;;;;;;1.45;0.98;;;;;;;;;;3587097;40;20272;-68
2021/08/11 07:21:02;;;;;;;1.55;1.05;;;;;;;;;;3586977;40;20064;-69
2021/08/11 07:23:27;;;;;;;2.67;1.38;;;;;;;;;;3585324;40;20349;-68
2021/08/11 07:25:53;;;;;;;1.50;0.82;;;;;;;;;;3585782;40;20039;-67
2021/08/11 07:28:18;;;;;;;1.80;1.20;;;;;;;;;;3587088;40;20446;-68
2021/08/11 07:30:45;;;;;;;1.70;1.20;;;;;;;;;;3586889;40;20048;-67
2021/08/11 07:33:11;;;;;;;2.17;1.30;;;;;;;;;;3583842;40;20833;-68
2021/08/11 07:35:37;;;;;;;1.83;1.38;;;;;;;;;;3586243;40;20123;-68
2021/08/11 07:38:04;;;;;;;1.63;1.08;;;;;;;;;;3586461;40;20040;-68
2021/08/11 07:40:30;;;;;;;1.20;0.93;;;;;;;;;;3587187;40;20025;-68
2021/08/11 07:42:56;;;;;;;2.80;1.60;;;;;;;;;;3586420;40;20047;-68
2021/08/11 07:45:23;;;;;;;2.15;1.50;;;;;;;;;;3586900;40;20060;-67
2021/08/11 07:47:52;;;;;;;2.97;1.38;;;;;;;;;;3586399;40;20493;-68
2021/08/11 07:50:18;;;;;;;4.43;1.50;;;;;;;;;;3585673;40;20031;-68
2021/08/11 07:52:44;;;;;;;3.05;1.15;;;;;;;;;;3586277;40;20044;-67
2021/08/11 07:55:10;;;;;;;1.55;1.13;;;;;;;;;;3586800;40;20357;-68
2021/08/11 07:57:36;;;;;;;1.45;0.85;;;;;;;;;;3587589;40;20381;-67
2021/08/11 08:00:03;;;;;;;1.23;0.98;;;;;;;;;;3587092;40;20031;-68
2021/08/11 08:02:28;;;;;;;1.77;1.10;;;;;;;;;;3587205;40;20036;-67
2021/08/11 08:04:54;;;;;;;1.10;0.77;;;;;;;;;;3586065;40;20303;-68
2021/08/11 08:07:19;;;;;;;2.22;1.33;;;;;;;;;;3585066;40;20029;-66
2021/08/11 08:09:44;;;;;;;1.35;0.95;;;;;;;;;;3585872;40;20036;-67
2021/08/11 08:12:10;;;;;;;1.48;1.08;;;;;;;;;;3586562;40;20032;-68
2021/08/11 08:14:35;;;;;;;1.55;1.02;;;;;;;;;;3586402;40;20129;-67
2021/08/11 08:17:01;;;;;;;1.50;1.08;;;;;;;;;;3585467;40;20040;-67
2021/08/11 08:19:26;;;;;;;1.50;1.13;;;;;;;;;;3587067;40;20044;-67
2021/08/11 08:21:54;;;;;;;3.33;1.42;;;;;;;;;;3586700;40;20289;-67
2021/08/11 08:24:20;;;;;;;1.55;1.08;;;;;;;;;;3586479;40;20412;-66
2021/08/11 08:26:46;;;;;;;1.60;1.27;;;;;;;;;;3585158;40;20086;-66
2021/08/11 08:29:11;;;;;;;1.73;1.10;;;;;;;;;;3586775;40;20048;-67
2021/08/11 08:31:36;;;;;;;2.08;1.17;;;;;;;;;;3586866;40;20083;-66
2021/08/11 08:34:02;;;;;;;1.90;1.25;;;;;;;;;;3586181;40;20253;-67
2021/08/11 08:36:27;;;;;;;1.52;1.20;;;;;;;;;;3586096;40;20037;-66
2021/08/11 08:38:53;;;;;;;1.63;1.17;;;;;;;;;;3586788;40;20084;-66
2021/08/11 08:41:18;;;;;;;1.38;1.02;;;;;;;;;;3584412;40;20051;-66
2021/08/11 08:43:43;;;;;;;1.60;1.10;;;;;;;;;;3586928;40;20033;-67
2021/08/11 08:46:09;;;;;;;1.50;1.02;;;;;;;;;;3586310;40;20249;-66
2021/08/11 08:48:40;;;;;;;1.42;1.15;;;;;;;;;;3586170;40;20376;-67
2021/08/11 08:51:07;;;;;;;;;;;;;;;;;;3586872;40;20044;-67
2021/08/11 08:53:34;;;;;;;1.85;1.13;;;;;;;;;;3587080;40;20029;-67
2021/08/11 08:56:00;;;;;;;1.45;0.93;;;;;;;;;;3586161;40;20040;-66
2021/08/11 08:58:26;;;;;;;1.58;1.10;;;;;;;;;;3587083;40;20283;-66
2021/08/11 09:00:52;;;;;;;1.38;0.98;;;;;;;;;;3585262;40;20055;-68
2021/08/11 09:03:17;;;;;;;1.63;1.17;;;;;;;;;;3585882;40;20308;-66
2021/08/11 09:05:43;;;;;;;2.05;1.20;;;;;;;;;;3586750;40;20044;-66
2021/08/11 09:08:08;;;;;;;1.30;0.88;;;;;;;;;;3586239;40;20359;-66
2021/08/11 09:10:38;;;;;;;1.45;1.15;;;;;;;;;;3586626;40;20128;-67
2021/08/11 09:13:07;;;;;;;1.63;1.23;;;;;;;;;;3586767;40;20063;-66
2021/08/11 09:15:39;;;;;;;1.08;0.82;;;;;;;;;;3585659;40;20040;-67
2021/08/11 09:18:24;;;;;;;1.38;1.00;;;;;;;;;;3586743;40;20307;-67
2021/08/11 09:20:59;;;;;;;2.03;1.08;;;;;;;;;;3586664;40;20036;-67
2021/08/11 09:23:39;;;;;;;1.48;1.13;;;;;;;;;;3586718;40;20040;-67
2021/08/11 09:26:07;;;;;;;1.50;0.93;;;;;;;;;;3585809;40;20036;-67
2021/08/11 09:28:34;;;;;;;1.88;1.13;;;;;;;;;;3586540;40;20035;-67
2021/08/11 09:31:00;;;;;;;1.30;1.00;;;;;;;;;;3587178;40;20245;-67
2021/08/11 09:33:26;;;;;;;1.40;1.10;;;;;;;;;;3586318;40;20122;-67
2021/08/11 09:35:53;;;;;;;2.17;1.48;;;;;;;;;;3586404;40;20080;-67
2021/08/11 09:38:20;;;;;;;2.65;1.35;;;;;;;;;;3583772;40;20032;-67
2021/08/11 09:40:47;;;;;;;2.15;1.50;;;;;;;;;;3586143;40;20041;-67
2021/08/11 09:43:16;;;;;;;2.10;1.30;;;;;;;;;;3586088;40;20033;-67
2021/08/11 09:45:48;;;;;;;2.10;1.63;;;;;;;;;;3585580;40;20084;-67
2021/08/11 09:48:16;;;;;;;1.58;1.10;;;;;;;;;;3586442;40;20043;-68
2021/08/11 09:50:45;;;;;;;1.88;1.50;;;;;;;;;;3583167;40;20048;-68
2021/08/11 09:53:13;;;;;;;2.58;1.73;;;;;;;;;;3584990;40;20052;-67
2021/08/11 09:55:56;;;;;;;1.40;1.08;;;;;;;;;;3582731;40;20749;-68
2021/08/11 09:58:21;;;;;;;1.60;1.20;;;;;;;;;;3584597;40;20040;-67
2021/08/11 10:00:47;;;;;;;1.77;1.25;;;;;;;;;;3584583;40;20081;-68
2021/08/11 10:03:13;;;;;;;1.95;1.45;;;;;;;;;;3585274;40;20052;-67
2021/08/11 10:05:38;;;;;;;1.73;1.30;;;;;;;;;;3584247;40;20068;-67
2021/08/11 10:08:05;;;;;;;1.83;1.20;;;;;;;;;;3583527;40;20040;-68
2021/08/11 10:10:48;;;;;;;1.73;1.20;;;;;;;;;;3584263;40;20043;-67
2021/08/11 10:13:18;;;;;;;1.58;1.23;;;;;;;;;;3586486;40;20072;-68
2021/08/11 10:15:45;;;;;;;2.00;1.45;;;;;;;;;;3586434;40;20032;-68
2021/08/11 10:18:12;;;;;;;2.17;1.60;;;;;;;;;;3586529;40;20040;-67
2021/08/11 10:20:40;;;;;;;2.15;1.67;;;;;;;;;;3586095;40;20040;-68
2021/08/11 10:23:05;;;;;;;2.05;1.65;;;;;;;;;;3586240;40;20391;-69
2021/08/11 10:25:31;;;;;;;2.53;1.65;;;;;;;;;;3584765;40;20045;-69
2021/08/11 10:27:57;;;;;;;2.53;1.92;;;;;;;;;;3586563;40;20113;-69
2021/08/11 10:30:23;;;;;;;2.38;2.05;;;;;;;;;;3585945;40;20045;-68
2021/08/11 10:32:50;;;;;;;2.42;1.90;;;;;;;;;;3587057;40;20064;-68
2021/08/11 10:35:15;;;;;;;2.75;1.83;;;;;;;;;;3585547;40;20368;-69
2021/08/11 10:37:42;;;;;;;2.10;1.60;;;;;;;;;;3586523;40;20045;-68
2021/08/11 10:40:08;;;;;;;2.30;1.90;;;;;;;;;;3586759;40;20029;-68
2021/08/11 10:42:34;;;;;;;2.30;1.73;;;;;;;;;;3586803;40;20036;-68
2021/08/11 10:45:00;;;;;;;3.03;2.17;;;;;;;;;;3585669;40;20063;-68
2021/08/11 10:47:31;;;;;;;2.45;1.90;;;;;;;;;;3587461;40;20045;-68
2021/08/11 10:50:03;;;;;;;3.28;2.20;;;;;;;;;;3586804;40;20032;-68
2021/08/11 10:52:29;;;;;;;2.50;1.80;;;;;;;;;;3586197;40;20094;-68
2021/08/11 10:55:04;;;;;;;2.70;2.17;;;;;;;;;;3587507;40;20051;-67
2021/08/11 10:57:36;;;;;;;2.60;2.10;;;;;;;;;;3587420;40;20118;-67
2021/08/11 11:00:09;;;;;;;2.90;2.30;;;;;;;;;;3586983;40;20134;-68
2021/08/11 11:02:44;;;;;;;2.58;2.10;;;;;;;;;;3587463;40;20067;-68
2021/08/11 11:05:22;;;;;;;2.40;1.80;;;;;;;;;;3587532;40;20039;-67
2021/08/11 11:08:23;;;;;;;2.50;1.98;;;;;;;;;;3585995;40;20056;-67
2021/08/11 11:10:49;;;;;;;3.17;2.08;;;;;;;;;;3586528;40;20145;-66
2021/08/11 11:13:23;;;;;;;2.55;1.98;;;;;;;;;;3586914;40;20367;-66
2021/08/11 11:15:48;;;;;;;2.92;2.22;;;;;;;;;;3586016;40;20059;-66
2021/08/11 11:18:22;;;;;;;2.72;2.17;;;;;;;;;;3586501;40;20033;-66
2021/08/11 11:20:57;;;;;;;2.63;2.20;;;;;;;;;;3585466;40;20093;-66
2021/08/11 11:23:48;;;;;;;2.53;2.15;;;;;;;;;;3585431;40;20060;-66
2021/08/11 11:26:31;;;;;;;2.35;1.73;;;;;;;;;;3585820;40;20040;-66
2021/08/11 11:29:04;;;;;;;2.50;2.10;;;;;;;;;;3586476;40;20044;-66
2021/08/11 11:31:30;;;;;;;2.50;1.92;;;;;;;;;;3586450;40;20040;-66
2021/08/11 11:34:21;;;;;;;2.70;2.10;;;;;;;;;;3586998;40;20044;-66
2021/08/11 11:36:56;;;;;;;5.03;2.28;;;;;;;;;;3586047;40;20036;-66
2021/08/11 11:39:26;;;;;;;2.58;2.13;;;;;;;;;;3586953;40;20080;-66
2021/08/11 11:42:22;;;;;;;3.13;2.83;;;;;;;;;;3586236;40;20052;-67
2021/08/11 11:44:57;;;;;;;2.40;1.73;;;;;;;;;;3586776;40;20133;-67
2021/08/11 11:47:41;;;;;;;8.50;2.60;;;;;;;;;;3586846;40;20084;-67
2021/08/11 11:50:25;;;;;;;2.22;1.65;;;;;;;;;;3586947;40;20037;-66
2021/08/11 11:52:57;;;;;;;2.17;1.70;;;;;;;;;;3586957;40;20089;-66
2021/08/11 11:55:32;;;;;;;2.75;2.05;;;;;;;;;;3587296;40;20040;-67
2021/08/11 11:58:01;;;;;;;2.60;1.88;;;;;;;;;;3586757;40;20032;-66
2021/08/11 12:00:29;;;;;;;2.47;1.70;;;;;;;;;;3587065;40;20043;-66
2021/08/11 12:02:55;;;;;;;2.90;1.90;;;;;;;;;;3586950;40;20275;-66
2021/08/11 12:05:22;;;;;;;2.42;1.90;;;;;;;;;;3587142;40;20047;-67
2021/08/11 12:07:48;;;;;;;1.80;1.40;;;;;;;;;;3586119;40;20121;-66
2021/08/11 12:10:28;;;;;;;5.00;1.95;;;;;;;;;;3584200;40;20365;-66
2021/08/11 12:13:01;;;;;;;2.50;1.50;;;;;;;;;;3586511;40;20032;-66
2021/08/11 12:15:29;;;;;;;2.30;1.73;;;;;;;;;;3587173;40;20368;-66
2021/08/11 12:17:56;;;;;;;2.83;1.92;;;;;;;;;;3585910;40;20052;-65
2021/08/11 12:20:32;;;;;;;3.05;1.90;;;;;;;;;;3585760;40;20036;-65
2021/08/11 12:23:02;;;;;;;1.98;1.50;;;;;;;;;;3585145;40;20352;-66
2021/08/11 12:25:30;;;;;;;2.38;1.73;;;;;;;;;;3586134;40;20056;-65
2021/08/11 12:28:08;;;;;;;2.22;1.60;;;;;;;;;;3585103;40;20029;-65
2021/08/11 12:30:35;;;;;;;2.13;1.42;;;;;;;;;;3586620;40;20092;-65
2021/08/11 12:33:02;;;;;;;2.65;1.90;;;;;;;;;;3587159;40;20047;-65
2021/08/11 12:35:29;;;;;;;2.50;1.92;;;;;;;;;;3586728;40;20367;-65
2021/08/11 12:37:54;;;;;;;2.20;1.88;;;;;;;;;;3586564;40;20831;-65
2021/08/11 12:40:31;;;;;;;2.55;2.00;;;;;;;;;;3585242;40;20033;-65
2021/08/11 12:42:59;;;;;;;2.38;1.92;;;;;;;;;;3586577;40;20305;-66
2021/08/11 12:45:26;;;;;;;2.97;1.98;;;;;;;;;;3586444;40;20386;-66
2021/08/11 12:47:51;;;;;;;2.92;2.50;;;;;;;;;;3586571;40;20105;-65
2021/08/11 12:50:22;;;;;;;2.72;2.20;;;;;;;;;;3586452;40;20032;-66
2021/08/11 12:52:57;;;;;;;2.42;1.80;;;;;;;;;;3585003;40;20149;-66
2021/08/11 12:55:35;;;;;;;3.20;2.30;;;;;;;;;;3585798;40;20029;-66
2021/08/11 12:58:01;;;;;;;4.00;2.15;;;;;;;;;;3586083;40;20044;-66
2021/08/11 13:00:44;;;;;;;3.75;2.83;;;;;;;;;;3586652;40;20036;-65
2021/08/11 13:03:12;;;;;;;2.50;1.98;;;;;;;;;;3586299;40;20059;-66
2021/08/11 13:05:52;;;;;;;2.70;2.40;;;;;;;;;;3586679;40;20032;-66
2021/08/11 13:08:18;;;;;;;3.03;2.50;;;;;;;;;;3586424;40;20029;-66
2021/08/11 13:10:55;;;;;;;2.88;2.42;;;;;;;;;;3585975;40;20047;-65
2021/08/11 13:13:23;;;;;;;2.85;2.03;;;;;;;;;;3586101;40;20041;-66
2021/08/11 13:15:48;;;;;;;3.13;2.28;;;;;;;;;;3586524;40;20161;-65
2021/08/11 13:18:24;;;;;;;2.40;2.00;;;;;;;;;;3586190;40;20372;-66
2021/08/11 13:20:50;;;;;;;2.85;2.45;;;;;;;;;;3585910;40;20388;-65
2021/08/11 13:23:16;;;;;;;2.75;2.17;;;;;;;;;;3585755;40;20032;-66
2021/08/11 13:25:45;;;;;;;2.55;2.20;;;;;;;;;;3586491;40;20056;-65
2021/08/11 13:28:12;;;;;;;2.70;2.20;;;;;;;;;;3586594;40;20055;-66
2021/08/11 13:30:38;;;;;;;2.50;2.10;;;;;;;;;;3586058;40;20040;-66
2021/08/11 13:33:04;;;;;;;2.72;2.17;;;;;;;;;;3585875;40;20342;-67
2021/08/11 13:35:31;;;;;;;3.40;2.63;;;;;;;;;;3586295;40;20053;-66
2021/08/11 13:37:58;;;;;;;2.50;1.92;;;;;;;;;;3586061;40;20257;-65
2021/08/11 13:40:24;;;;;;;2.30;1.80;;;;;;;;;;3585236;40;20056;-66
2021/08/11 13:42:49;;;;;;;2.50;2.00;;;;;;;;;;3586136;40;20044;-66
2021/08/11 13:45:15;;;;;;;3.50;2.80;;;;;;;;;;3586739;40;20025;-67
2021/08/11 13:47:42;;;;;;;7.45;3.22;;;;;;;;;;3585876;40;20198;-66
2021/08/11 13:50:09;;;;;;;2.95;2.33;;;;;;;;;;3586369;40;20068;-67
2021/08/11 13:52:35;;;;;;;3.25;2.95;;;;;;;;;;3585757;40;20052;-65
2021/08/11 13:55:00;;;;;;;3.15;2.63;;;;;;;;;;3586481;40;20155;-66
2021/08/11 13:57:29;;;;;;;2.85;2.55;;;;;;;;;;3585479;40;20025;-66
2021/08/11 13:59:54;;;;;;;2.50;2.00;;;;;;;;;;3585736;40;20115;-66
2021/08/11 14:02:19;;;;;;;2.97;2.63;;;;;;;;;;3586181;40;20052;-66
2021/08/11 14:04:45;;;;;;;3.08;2.25;;;;;;;;;;3584475;40;20134;-67
2021/08/11 14:07:10;;;;;;;3.35;2.20;;;;;;;;;;3586187;40;20043;-65
2021/08/11 14:09:36;;;;;;;2.30;1.65;;;;;;;;;;3586145;40;20053;-66
2021/08/11 14:12:01;;;;;;;2.60;2.00;;;;;;;;;;3585400;40;20029;-67
2021/08/11 14:14:28;;;;;;;3.20;2.33;;;;;;;;;;3586698;40;20045;-66
2021/08/11 14:16:53;;;;;;;3.03;2.50;;;;;;;;;;3585491;40;20049;-67
2021/08/11 14:19:19;;;;;;;2.78;2.33;;;;;;;;;;3586183;40;20130;-66
2021/08/11 14:21:45;;;;;;;3.58;2.53;;;;;;;;;;3585660;40;20055;-66
2021/08/11 14:24:10;;;;;;;3.08;2.55;;;;;;;;;;3585920;40;20058;-67
2021/08/11 14:26:36;;;;;;;2.63;2.17;;;;;;;;;;3584722;40;20033;-67
2021/08/11 14:29:02;;;;;;;2.90;2.42;;;;;;;;;;3586504;40;20029;-66
2021/08/11 14:31:28;;;;;;;2.80;2.13;;;;;;;;;;3586423;40;20037;-65
2021/08/11 14:33:54;;;;;;;2.30;1.60;;;;;;;;;;3585308;40;20043;-66
2021/08/11 14:36:20;;;;;;;4.00;2.75;;;;;;;;;;3585161;40;20353;-66
2021/08/11 14:38:46;;;;;;;2.63;2.22;;;;;;;;;;3586236;40;20040;-66
2021/08/11 14:41:12;;;;;;;2.70;2.05;;;;;;;;;;3586243;40;20036;-66
2021/08/11 14:43:37;;;;;;;2.50;1.92;;;;;;;;;;3585581;40;20313;-67
2021/08/11 14:46:06;;;;;;;2.83;2.40;;;;;;;;;;3585904;40;20041;-67